Time;durP1;ratioP1;P1;durP2;ratioP2;P2;SDS_P1;SDS_P2;PMS_P1;PMS_P2;Temp;Humidity;BMP_temperature;BMP_pressure;BME280_temperature;BME280_humidity;BME280_pressure;Samples;Min_cycle;Max_cycle;Signal;HPM_P1;HPM_P2
2021/01/17 00:04:05;;;;;;;27.15;10.70;;;-0.80;99.90;;;;;;6753661;88;20272;-76
2021/01/17 00:14:06;;;;;;;28.42;11.38;;;-0.80;99.90;;;;;;6756982;88;20240;-75
2021/01/17 00:24:07;;;;;;;29.40;11.75;;;-0.80;99.90;;;;;;6743829;88;20190;-75
2021/01/17 00:34:08;;;;;;;29.42;11.32;;;-0.70;99.90;;;;;;6751070;88;20254;-75
2021/01/17 00:44:08;;;;;;;27.17;11.40;;;-0.70;99.90;;;;;;6746798;88;20310;-75
2021/01/17 00:54:09;;;;;;;27.45;11.73;;;-0.70;99.90;;;;;;6749262;88;20186;-76
2021/01/17 01:04:11;;;;;;;28.30;11.98;;;-0.90;99.90;;;;;;6752967;88;20211;-76
2021/01/17 01:14:11;;;;;;;27.55;11.55;;;-0.90;99.90;;;;;;6757010;88;20237;-75
2021/01/17 01:24:13;;;;;;;23.15;8.70;;;-0.80;99.90;;;;;;6751873;88;20327;-75
2021/01/17 01:34:13;;;;;;;28.65;11.00;;;-0.90;99.90;;;;;;6756753;88;20332;-76
2021/01/17 01:44:14;;;;;;;28.12;11.75;;;-0.80;99.90;;;;;;6752518;88;20305;-75
2021/01/17 01:54:15;;;;;;;25.55;10.57;;;-0.80;99.90;;;;;;6745833;88;20204;-76
2021/01/17 02:04:16;;;;;;;29.00;10.50;;;-0.80;99.90;;;;;;6756411;88;20188;-75
2021/01/17 02:14:40;;;;;;;27.75;10.82;;;-0.70;99.90;;;;;;6752956;88;20271;-76
2021/01/17 02:25:00;;;;;;;26.23;10.63;;;-0.70;99.90;;;;;;6753145;87;20185;-75
2021/01/17 02:35:02;;;;;;;31.55;11.82;;;-0.90;99.90;;;;;;6753216;88;20189;-76
2021/01/17 02:45:03;;;;;;;30.58;12.23;;;-0.90;99.90;;;;;;6763896;88;20313;-75
2021/01/17 02:55:04;;;;;;;29.75;11.18;;;-0.80;99.90;;;;;;6754810;88;20172;-75
2021/01/17 03:05:06;;;;;;;30.90;12.13;;;-0.80;99.90;;;;;;6747304;88;20181;-75
2021/01/17 03:15:08;;;;;;;36.65;12.90;;;-0.90;99.90;;;;;;6750377;88;20181;-75
2021/01/17 03:25:09;;;;;;;34.22;12.30;;;-0.80;99.90;;;;;;6714998;77;20386;-74
2021/01/17 03:35:10;;;;;;;35.90;12.57;;;-0.80;99.90;;;;;;6705567;88;20195;-74
2021/01/17 03:45:11;;;;;;;28.85;11.45;;;-0.80;99.90;;;;;;6711372;88;20220;-75
2021/01/17 03:55:11;;;;;;;29.35;12.10;;;-0.70;99.90;;;;;;6708413;88;20185;-74
2021/01/17 04:05:12;;;;;;;32.92;11.38;;;-0.80;99.90;;;;;;6706635;88;20582;-75
2021/01/17 04:15:13;;;;;;;34.40;13.48;;;-0.80;99.90;;;;;;6703331;88;20543;-75
2021/01/17 04:25:13;;;;;;;32.00;12.65;;;-0.80;99.90;;;;;;6702980;88;20785;-76
2021/01/17 04:35:14;;;;;;;32.70;12.45;;;-0.70;99.90;;;;;;6702198;88;20608;-75
2021/01/17 04:45:17;;;;;;;30.10;11.18;;;-0.70;99.90;;;;;;6709291;88;20564;-75
2021/01/17 04:55:23;;;;;;;30.48;11.90;;;-0.70;99.90;;;;;;6705504;88;22393;-75
2021/01/17 05:05:25;;;;;;;35.55;13.05;;;-0.70;99.90;;;;;;6701038;88;20208;-75
2021/01/17 05:15:25;;;;;;;31.70;11.90;;;-0.60;99.90;;;;;;6704647;88;21140;-75
2021/01/17 05:25:29;;;;;;;27.62;11.48;;;-0.70;99.90;;;;;;6711580;88;20337;-75
2021/01/17 05:35:29;;;;;;;33.85;12.48;;;-0.60;99.90;;;;;;6705964;88;20189;-75
2021/01/17 05:45:30;;;;;;;36.08;13.15;;;-0.60;99.90;;;;;;6704997;88;20191;-75
2021/01/17 05:55:35;;;;;;;37.75;12.57;;;-0.60;99.90;;;;;;6704079;88;20261;-75
2021/01/17 06:05:37;;;;;;;30.00;11.20;;;-0.40;99.90;;;;;;6706849;88;20341;-75
2021/01/17 06:15:37;;;;;;;31.67;11.82;;;-0.40;99.90;;;;;;6706211;88;20322;-76
2021/01/17 06:25:38;;;;;;;36.63;13.10;;;-0.40;99.90;;;;;;6707508;88;20220;-75
2021/01/17 06:35:38;;;;;;;28.40;10.65;;;-0.40;99.90;;;;;;6706538;88;20493;-76
2021/01/17 06:45:46;;;;;;;34.70;13.10;;;-0.40;99.90;;;;;;6703377;88;20955;-75
2021/01/17 06:55:46;;;;;;;34.15;12.88;;;-0.40;99.90;;;;;;6704691;88;20194;-75
2021/01/17 07:05:53;;;;;;;32.28;12.25;;;-0.40;99.90;;;;;;6701616;88;20744;-75
2021/01/17 07:15:55;;;;;;;31.73;11.77;;;-0.40;99.90;;;;;;6708942;88;20206;-75
2021/01/17 07:26:00;;;;;;;31.95;11.12;;;-0.20;99.90;;;;;;6701549;88;20187;-75
2021/01/17 07:36:02;;;;;;;32.58;13.57;;;-0.30;99.90;;;;;;6712151;88;20650;-75
2021/01/17 07:46:09;;;;;;;33.65;12.35;;;-0.20;99.90;;;;;;6704392;88;20226;-75
2021/01/17 07:56:10;;;;;;;34.27;12.37;;;-0.20;99.90;;;;;;6705544;88;20254;-77
2021/01/17 08:06:11;;;;;;;37.90;13.98;;;-0.30;99.90;;;;;;6705608;88;20183;-75
2021/01/17 08:16:14;;;;;;;37.53;14.13;;;-0.20;99.90;;;;;;6702191;88;20207;-75
2021/01/17 08:26:15;;;;;;;42.15;14.48;;;-0.10;99.90;;;;;;6696444;88;20219;-74
2021/01/17 08:36:28;;;;;;;40.05;14.63;;;0.00;99.90;;;;;;6704046;88;20272;-75
2021/01/17 08:46:40;;;;;;;37.88;12.73;;;-0.10;99.90;;;;;;6704045;88;20214;-74
2021/01/17 08:56:41;;;;;;;38.60;14.40;;;0.10;99.90;;;;;;6707612;88;20182;-75
2021/01/17 09:06:41;;;;;;;42.35;15.98;;;0.00;99.90;;;;;;6707746;88;20233;-75
2021/01/17 09:16:51;;;;;;;41.65;15.55;;;0.10;99.90;;;;;;6709960;88;20209;-74
2021/01/17 09:26:57;;;;;;;40.78;14.98;;;0.20;99.90;;;;;;6706052;88;20213;-74
2021/01/17 09:37:00;;;;;;;45.97;15.40;;;0.30;99.90;;;;;;6709710;88;20275;-75
2021/01/17 09:47:01;;;;;;;43.95;15.98;;;0.20;99.90;;;;;;6710828;88;20760;-74
2021/01/17 09:57:12;;;;;;;45.95;17.02;;;0.20;99.90;;;;;;6712360;88;20185;-75
2021/01/17 10:07:17;;;;;;;45.17;17.10;;;0.20;99.90;;;;;;6707900;88;20225;-74
2021/01/17 10:17:18;;;;;;;41.45;15.57;;;0.40;99.90;;;;;;6705287;88;20293;-74
2021/01/17 10:27:20;;;;;;;45.15;17.65;;;0.60;99.90;;;;;;6703532;88;20200;-73
2021/01/17 10:37:21;;;;;;;45.70;16.87;;;0.70;99.90;;;;;;6705128;88;20215;-74
2021/01/17 10:47:51;;;;;;;42.40;16.10;;;0.90;99.90;;;;;;6703530;88;20290;-75
2021/01/17 10:57:52;;;;;;;46.50;17.23;;;0.80;99.90;;;;;;6706660;88;20698;-75
2021/01/17 11:07:53;;;;;;;45.12;17.58;;;0.80;99.90;;;;;;6707448;88;20221;-76
2021/01/17 11:17:56;;;;;;;43.97;16.45;;;0.90;99.90;;;;;;6707741;88;20190;-74
2021/01/17 11:27:58;;;;;;;44.45;17.27;;;1.00;99.90;;;;;;6701792;88;20249;-74
2021/01/17 11:37:59;;;;;;;49.20;17.67;;;1.20;99.90;;;;;;6705116;88;20310;-76
2021/01/17 11:48:00;;;;;;;42.90;16.10;;;1.20;99.90;;;;;;6703233;88;20217;-76
2021/01/17 11:58:12;;;;;;;43.70;14.87;;;1.10;99.90;;;;;;6705445;88;20207;-76
2021/01/17 12:08:12;;;;;;;51.28;16.75;;;1.00;99.90;;;;;;6706643;88;20182;-76
2021/01/17 12:18:13;;;;;;;45.20;16.17;;;1.10;99.90;;;;;;6707355;88;20270;-75
2021/01/17 12:28:13;;;;;;;41.88;16.58;;;1.30;99.90;;;;;;6706282;88;20198;-76
2021/01/17 12:38:14;;;;;;;45.42;15.75;;;1.50;99.90;;;;;;6707719;88;20223;-76
2021/01/17 12:48:14;;;;;;;40.08;16.48;;;1.40;99.90;;;;;;6725031;88;20205;-75
2021/01/17 12:58:15;;;;;;;46.45;16.52;;;1.60;99.90;;;;;;6719624;88;20331;-76
2021/01/17 13:08:19;;;;;;;47.53;17.83;;;1.50;99.90;;;;;;6723428;88;20181;-76
2021/01/17 13:18:20;;;;;;;46.42;17.90;;;1.30;99.90;;;;;;6708779;88;20532;-76
2021/01/17 13:28:23;;;;;;;43.85;17.27;;;1.50;99.90;;;;;;6705649;88;20206;-75
2021/01/17 13:38:25;;;;;;;40.58;16.60;;;1.60;99.90;;;;;;6702437;88;20387;-75
2021/01/17 13:48:25;;;;;;;44.75;16.42;;;1.50;99.90;;;;;;6698823;88;20670;-75
2021/01/17 13:58:26;;;;;;;50.12;17.62;;;1.60;99.90;;;;;;6692459;88;20676;-73
2021/01/17 14:08:27;;;;;;;56.20;19.70;;;1.50;99.90;;;;;;6703305;88;20849;-73
2021/01/17 14:18:28;;;;;;;48.53;19.12;;;1.40;99.90;;;;;;6706438;88;20521;-75
2021/01/17 14:28:28;;;;;;;50.25;18.95;;;1.40;99.90;;;;;;6702766;88;20198;-78
2021/01/17 14:38:29;;;;;;;51.92;20.15;;;1.40;99.90;;;;;;6695480;88;20654;-77
2021/01/17 14:48:29;;;;;;;53.65;20.62;;;1.60;99.90;;;;;;6700114;88;20269;-76
2021/01/17 14:58:30;;;;;;;56.55;19.83;;;1.70;99.90;;;;;;6700673;88;20326;-78
2021/01/17 15:08:30;;;;;;;57.50;20.90;;;1.60;99.90;;;;;;6707545;88;20183;-77
2021/01/17 15:18:31;;;;;;;48.95;20.35;;;1.70;99.90;;;;;;6709148;88;20509;-78
2021/01/17 15:28:32;;;;;;;52.20;19.52;;;1.70;99.90;;;;;;6709646;88;20235;-77
2021/01/17 15:38:44;;;;;;;50.53;19.52;;;1.70;99.90;;;;;;6706424;88;20891;-74
2021/01/17 15:48:47;;;;;;;50.33;19.08;;;1.80;99.90;;;;;;6699484;88;20211;-77
2021/01/17 15:58:48;;;;;;;52.70;19.83;;;1.80;99.90;;;;;;6698916;88;20190;-75
2021/01/17 16:08:50;;;;;;;55.80;20.75;;;1.90;99.90;;;;;;6700591;88;20189;-75
2021/01/17 16:18:51;;;;;;;59.67;21.70;;;1.90;99.90;;;;;;6699920;88;20221;-77
2021/01/17 16:28:54;;;;;;;57.42;21.02;;;1.90;99.90;;;;;;6702546;88;20181;-74
2021/01/17 16:38:55;;;;;;;64.40;23.58;;;1.80;99.90;;;;;;6710535;88;20491;-75
2021/01/17 16:48:55;;;;;;;66.78;23.80;;;1.70;99.90;;;;;;6708218;88;20618;-74
2021/01/17 16:58:56;;;;;;;63.97;23.25;;;2.00;99.90;;;;;;6707823;88;20496;-74
2021/01/17 17:08:57;;;;;;;46.55;17.73;;;1.70;99.90;;;;;;6705603;88;20236;-75
2021/01/17 17:18:57;;;;;;;53.80;20.67;;;1.70;99.90;;;;;;6707694;88;20211;-74
2021/01/17 17:29:00;;;;;;;58.90;22.20;;;2.40;99.90;;;;;;6708336;88;20199;-74
2021/01/17 17:39:01;;;;;;;60.03;23.42;;;2.50;99.90;;;;;;6708280;88;20183;-75
2021/01/17 17:49:02;;;;;;;47.42;19.20;;;2.50;99.90;;;;;;6702973;88;20207;-75
2021/01/17 17:59:02;;;;;;;39.67;17.35;;;2.40;99.90;;;;;;6696960;88;20318;-75
2021/01/17 18:09:03;;;;;;;40.42;17.60;;;2.50;99.90;;;;;;6699712;88;20249;-74
2021/01/17 18:19:04;;;;;;;39.75;17.10;;;2.60;99.90;;;;;;6709391;88;20233;-75
2021/01/17 18:29:04;;;;;;;36.53;14.63;;;2.40;99.90;;;;;;6710963;88;20218;-74
2021/01/17 18:39:05;;;;;;;31.00;11.00;;;3.30;99.90;;;;;;6707863;88;20198;-73
2021/01/17 18:49:06;;;;;;;25.12;10.40;;;3.50;99.90;;;;;;6703849;88;20185;-74
2021/01/17 18:59:06;;;;;;;26.48;9.00;;;3.50;99.90;;;;;;6700279;88;20848;-73
2021/01/17 19:09:07;;;;;;;21.48;9.82;;;3.60;99.90;;;;;;6698469;88;20198;-73
2021/01/17 19:19:07;;;;;;;21.67;9.55;;;3.70;99.90;;;;;;6700557;88;20191;-74
2021/01/17 19:29:08;;;;;;;23.70;9.10;;;3.70;99.90;;;;;;6701934;88;20220;-74
2021/01/17 19:39:09;;;;;;;19.73;7.87;;;3.80;99.90;;;;;;6704657;88;20646;-75
2021/01/17 19:49:11;;;;;;;30.05;9.48;;;3.80;99.90;;;;;;6701970;88;20609;-74
2021/01/17 19:59:12;;;;;;;28.58;9.27;;;3.70;99.90;;;;;;6695983;88;20623;-73
2021/01/17 20:09:13;;;;;;;19.55;7.97;;;3.80;99.90;;;;;;6693173;88;20182;-74
2021/01/17 20:19:13;;;;;;;20.27;7.62;;;3.80;99.90;;;;;;6687314;88;20175;-73
2021/01/17 20:29:14;;;;;;;23.65;7.50;;;4.00;99.90;;;;;;6697790;88;20183;-75
2021/01/17 20:39:14;;;;;;;23.00;6.75;;;3.90;99.90;;;;;;6698357;88;20222;-73
2021/01/17 20:49:15;;;;;;;24.48;6.60;;;3.90;99.90;;;;;;6700754;88;20200;-73
2021/01/17 20:59:16;;;;;;;21.40;6.70;;;4.00;99.90;;;;;;6698867;88;20237;-76
2021/01/17 21:09:16;;;;;;;19.45;6.50;;;4.00;99.90;;;;;;6698895;88;20225;-74
2021/01/17 21:19:17;;;;;;;14.07;5.93;;;4.10;99.90;;;;;;6699899;88;20216;-74
2021/01/17 21:29:17;;;;;;;23.17;6.53;;;4.00;99.90;;;;;;6696936;88;20182;-74
2021/01/17 21:39:18;;;;;;;18.73;6.03;;;4.00;99.90;;;;;;6694084;88;20200;-74
2021/01/17 21:49:19;;;;;;;14.82;5.57;;;4.00;99.90;;;;;;6690914;88;20611;-73
2021/01/17 21:59:19;;;;;;;13.75;4.87;;;4.10;99.90;;;;;;6697005;88;20261;-74
2021/01/17 22:09:21;;;;;;;12.27;4.05;;;4.00;99.90;;;;;;6688836;88;20698;-74
2021/01/17 22:19:22;;;;;;;8.32;3.15;;;4.00;99.90;;;;;;6693082;88;20198;-75
2021/01/17 22:29:22;;;;;;;5.60;1.92;;;3.90;99.90;;;;;;6691137;88;20257;-74
2021/01/17 22:39:23;;;;;;;5.30;1.77;;;3.90;99.90;;;;;;6698348;88;20634;-76
2021/01/17 22:49:24;;;;;;;6.78;2.17;;;3.90;99.90;;;;;;6701874;88;20289;-76
2021/01/17 22:59:25;;;;;;;7.82;2.70;;;3.80;99.90;;;;;;6702072;88;20468;-76
2021/01/17 23:09:27;;;;;;;7.20;3.35;;;3.90;99.90;;;;;;6699586;88;20198;-76
2021/01/17 23:19:28;;;;;;;12.48;4.82;;;3.90;99.90;;;;;;6702350;88;20244;-76
2021/01/17 23:29:28;;;;;;;14.75;6.50;;;3.90;99.90;;;;;;6705549;88;20204;-76
2021/01/17 23:39:29;;;;;;;21.23;7.50;;;4.00;99.90;;;;;;6715596;88;20285;-76
2021/01/17 23:49:29;;;;;;;17.50;7.28;;;4.00;99.90;;;;;;6714725;88;21029;-76
2021/01/17 23:59:32;;;;;;;18.37;7.28;;;4.10;99.90;;;;;;6715916;88;20316;-76
